KPBI/PBI METAR and TAF weather

Enter ICAO airport designator
Station Type Date Time Source
KPBI METAR 2021/01/17 18:53 UTC NOAA

KPBI 171853Z 23005KT 10SM FEW041 BKN060 BKN250 19/07 A3003 RMK AO2 SLP168 T01890072 $


Station Type Date Time Source
KPBI Decoded METAR 2021/01/17 18:53 UTC NOAA

PALM BEACH INTERNATIONAL, FL, United States (KPBI) 26-41N 80-06W 6M
Jan 17, 2021 - 01:53 PM EST / 2021.01.17 1853 UTC
Wind: from the SW (230 degrees) at 6 MPH (5 KT):0
Visibility: 10 mile(s):0
Sky conditions: mostly cloudy
Temperature: 66.0 F (18.9 C)
Dew Point: 45.0 F (7.2 C)
Relative Humidity: 46%
Pressure (altimeter): 30.03 in. Hg (1016 hPa)
ob: KPBI 171853Z 23005KT 10SM FEW041 BKN060 BKN250 19/07 A3003 RMK AO2 SLP168 T01890072
cycle: 19

Station Type Date Time Source
KPBI TAF 2021/01/17 18:58 UTC NOAA

TAF KPBI 171757Z 1718/1818 VRB04KT P6SM SCT050 SCT150 BKN250
FM181400 32008KT P6SM SCT050 BKN250

Example: see airport list